createdAt,value
2016-05-20T07:28:04.913Z,0
2016-05-20T07:28:14.913Z,0
2016-05-20T07:30:06.215Z,0
2016-05-20T07:30:16.075Z,0
2016-05-20T07:30:26.215Z,0
2016-05-20T07:30:48.812Z,0
2016-05-20T07:30:58.828Z,0
2016-05-20T07:31:08.812Z,0
2016-05-20T07:31:18.796Z,0
2016-05-20T07:31:28.812Z,0
2016-05-20T07:31:38.799Z,0
2016-05-20T07:31:48.799Z,0
2016-05-20T07:32:07.987Z,0
2016-05-20T07:32:17.987Z,0
2016-05-20T07:32:27.831Z,0
2016-05-20T07:32:37.817Z,0
2016-05-20T07:32:47.817Z,0
2016-05-20T07:32:57.817Z,0
2016-05-20T07:33:07.973Z,0
2016-05-20T07:33:17.958Z,0
2016-05-20T07:33:27.973Z,0
2016-05-20T07:33:37.976Z,0
2016-05-20T07:33:47.961Z,0
2016-05-20T07:33:57.804Z,0
2016-05-20T07:34:07.804Z,0
2016-05-20T07:34:17.804Z,0
2016-05-20T07:34:27.945Z,0
2016-05-20T07:34:37.807Z,0
2016-05-20T07:34:47.964Z,0
2016-05-20T07:34:57.948Z,0
2016-05-20T07:35:07.948Z,0
2016-05-20T07:35:17.948Z,0
2016-05-20T07:35:27.948Z,0
2016-05-20T07:35:37.950Z,0
2016-05-20T07:35:48.012Z,1
2016-05-20T07:35:57.934Z,0
2016-05-20T07:36:07.934Z,0
2016-05-20T07:36:17.778Z,0
2016-05-20T07:36:27.934Z,0
2016-05-20T07:36:37.936Z,0
2016-05-20T07:36:47.936Z,0
2016-05-20T07:36:57.952Z,0
2016-05-20T07:37:07.968Z,0
2016-05-20T07:37:17.764Z,0
2016-05-20T07:37:27.921Z,0
2016-05-20T07:37:37.939Z,0
2016-05-20T07:37:47.924Z,0
2016-05-20T07:37:57.924Z,0
2016-05-20T07:38:07.955Z,0
2016-05-20T07:38:17.924Z,0
2016-05-20T07:38:27.924Z,0
2016-05-20T07:38:37.911Z,0
2016-05-20T07:38:47.958Z,0
2016-05-20T07:38:57.614Z,0
2016-05-20T07:39:07.599Z,0
2016-05-20T07:39:17.911Z,0
2016-05-20T07:51:44.385Z,0
2016-05-20T07:51:54.385Z,0
2016-05-20T07:52:04.369Z,0
2016-05-20T07:52:14.400Z,0
2016-05-20T07:52:24.072Z,0
2016-05-20T07:52:35.417Z,0
2016-05-20T07:52:44.370Z,0
2016-05-20T07:52:54.370Z,0
2016-05-20T07:53:04.370Z,0
2016-05-20T07:53:14.370Z,0
2016-05-20T07:53:24.354Z,0
2016-05-20T07:53:34.357Z,0
2016-05-20T07:53:44.357Z,0
2016-05-20T07:53:54.373Z,0
2016-05-20T07:54:23.592Z,0
2016-05-20T07:54:33.938Z,0
2016-05-20T07:54:43.579Z,0
2016-05-20T07:54:53.454Z,0
2016-05-20T07:55:03.438Z,0
2016-05-20T07:55:13.595Z,0
2016-05-20T07:55:23.798Z,0
2016-05-20T07:55:33.863Z,0
2016-05-20T07:55:43.582Z,0
2016-05-20T07:55:53.426Z,0
2016-05-20T07:56:03.582Z,0
2016-05-20T07:56:13.582Z,0
2016-05-20T07:56:40.522Z,0
2016-05-20T07:56:50.693Z,0
2016-05-20T07:57:00.678Z,0
2016-05-20T07:57:10.693Z,0
2016-05-20T07:57:20.678Z,0
2016-05-20T07:57:30.522Z,0
2016-05-20T07:57:40.681Z,0
2016-05-20T07:57:50.665Z,0
2016-05-20T07:58:00.681Z,0
2016-05-20T07:58:10.525Z,0
2016-05-20T07:58:20.509Z,0
2016-05-20T07:58:30.665Z,0
2016-05-20T07:58:40.668Z,0
2016-05-20T07:58:50.668Z,0
2016-05-20T07:59:00.668Z,0
2016-05-20T07:59:10.668Z,0
2016-05-20T07:59:20.653Z,0
2016-05-20T07:59:39.843Z,0
2016-05-20T07:59:45.281Z,0
2016-05-20T08:00:04.296Z,1
2016-05-20T08:00:09.874Z,1
2016-05-20T08:00:19.827Z,0
2016-05-20T08:00:29.656Z,0
2016-05-20T08:00:39.658Z,0
2016-05-20T08:00:49.829Z,65535
2016-05-20T08:00:59.689Z,65535
2016-05-20T08:01:09.814Z,65535
2016-05-20T08:01:20.048Z,65535
2016-05-20T08:01:29.814Z,65535
2016-05-20T08:01:39.723Z,65535
2016-05-20T08:01:49.661Z,65535
2016-05-20T08:01:59.661Z,65535
2016-05-20T08:02:09.864Z,65535
2016-05-20T08:02:19.801Z,65535
2016-05-20T08:02:40.226Z,65535
2016-05-20T08:02:46.460Z,65535
2016-05-20T08:02:56.414Z,65535
2016-05-20T08:03:06.414Z,65535
2016-05-20T08:03:16.257Z,65535
2016-05-20T08:03:26.414Z,65535
2016-05-20T08:03:36.275Z,65535
2016-05-20T08:03:46.400Z,0
2016-05-20T08:03:56.103Z,0
2016-05-20T08:04:06.400Z,0
2016-05-20T08:04:16.400Z,0
2016-05-20T08:04:26.400Z,0
2016-05-20T08:04:36.403Z,0
2016-05-20T08:04:46.247Z,0
2016-05-20T08:04:56.403Z,0
2016-05-20T08:05:06.403Z,0
2016-05-20T08:05:16.403Z,0
2016-05-20T08:05:26.403Z,0
2016-05-20T08:05:36.250Z,0
2016-05-20T08:05:46.250Z,0
2016-05-20T08:05:56.390Z,0
2016-05-20T08:06:06.234Z,0
2016-05-20T08:06:16.390Z,0
2016-05-20T08:06:26.390Z,0
2016-05-20T08:06:36.392Z,0
2016-05-20T08:06:46.267Z,0
2016-05-20T08:06:56.564Z,0
2016-05-20T08:07:19.361Z,0
2016-05-20T08:07:34.692Z,0
2016-05-20T08:07:44.802Z,0
2016-05-20T08:07:52.583Z,0
2016-05-20T08:08:02.739Z,0
2016-05-20T08:08:12.755Z,0
2016-05-20T08:08:22.583Z,0
2016-05-20T08:08:32.742Z,0
2016-05-20T08:08:42.742Z,0
2016-05-20T08:08:52.726Z,0
2016-05-20T08:09:02.726Z,0
2016-05-20T08:09:12.742Z,0
2016-05-20T08:09:22.586Z,0
2016-05-20T08:09:33.401Z,0
2016-05-20T08:09:43.011Z,0
2016-05-20T08:09:52.479Z,0
2016-05-20T08:10:02.745Z,0
2016-05-20T08:10:13.354Z,0
2016-05-20T08:10:22.573Z,0
2016-05-20T08:10:32.888Z,0
2016-05-20T08:10:44.060Z,0
2016-05-20T08:10:52.435Z,0
2016-05-20T08:11:03.091Z,0
2016-05-20T08:11:13.669Z,0
2016-05-20T08:11:22.731Z,0
2016-05-20T08:11:32.719Z,0
2016-05-20T08:11:42.719Z,0
2016-05-20T08:11:52.719Z,0
2016-05-20T08:12:02.563Z,0
2016-05-20T08:12:12.719Z,0
2016-05-20T08:12:22.719Z,0
2016-05-20T08:12:32.706Z,0
2016-05-20T08:12:42.722Z,0
2016-05-20T08:12:52.706Z,0
2016-05-20T08:13:02.581Z,0
2016-05-20T08:13:12.706Z,0
2016-05-20T08:13:22.706Z,0
2016-05-20T08:13:32.552Z,0
2016-05-20T08:13:42.708Z,0
2016-05-20T08:13:52.568Z,0
2016-05-20T08:14:02.708Z,0
2016-05-20T08:14:12.708Z,0
2016-05-20T08:14:22.708Z,0
2016-05-20T08:14:32.555Z,0
2016-05-20T08:14:42.555Z,0
2016-05-20T08:14:52.727Z,0
2016-05-20T08:15:02.727Z,0
2016-05-20T08:15:12.711Z,0
2016-05-20T08:15:22.696Z,0
2016-05-20T08:15:32.539Z,0
2016-05-20T08:15:42.699Z,0
2016-05-20T08:15:52.558Z,0
2016-05-20T08:16:02.714Z,0
2016-05-20T08:16:17.245Z,0
2016-05-20T08:16:27.199Z,65535
2016-05-20T08:16:37.045Z,0
2016-05-20T08:16:47.217Z,0
2016-05-20T08:16:57.202Z,0
2016-05-20T08:17:10.733Z,0
2016-05-20T08:17:49.329Z,0
2016-05-20T08:17:53.938Z,0
2016-05-20T08:18:03.891Z,0
2016-05-20T08:18:13.719Z,0
2016-05-20T08:18:23.875Z,0
2016-05-20T08:18:33.722Z,0
2016-05-20T08:18:43.878Z,0
2016-05-20T08:18:53.722Z,0
2016-05-20T08:19:03.878Z,0
2016-05-20T08:19:13.878Z,0
2016-05-20T08:19:23.878Z,0
2016-05-20T08:19:33.802Z,0
2016-05-20T08:19:43.880Z,0
2016-05-20T08:20:02.693Z,0
2016-05-20T08:20:08.865Z,0
2016-05-20T08:20:32.568Z,0
2016-05-20T08:20:37.383Z,0
2016-05-20T08:20:58.102Z,0
2016-05-20T08:21:21.024Z,0
2016-05-20T08:21:31.040Z,0
2016-05-20T08:21:46.605Z,0
2016-05-20T08:21:51.058Z,0
2016-05-20T08:22:01.183Z,0
2016-05-20T08:22:10.871Z,0
2016-05-20T08:22:31.308Z,0
2016-05-20T08:22:37.513Z,0
2016-05-20T08:22:46.435Z,0
2016-05-20T08:23:03.029Z,0
2016-05-20T08:23:07.467Z,0
2016-05-20T08:23:17.560Z,0
2016-05-20T08:23:28.482Z,0
2016-05-20T08:23:37.751Z,0
2016-05-20T08:23:47.579Z,0
2016-05-20T08:23:57.407Z,0
2016-05-20T08:24:07.251Z,0
2016-05-20T08:24:17.579Z,0
2016-05-20T08:24:27.563Z,0
2016-05-20T08:24:55.738Z,0
2016-05-20T08:25:06.957Z,0
2016-05-20T08:26:45.556Z,0
2016-05-20T08:26:55.556Z,0
2016-05-20T08:27:05.540Z,0
2016-05-20T08:27:15.540Z,0
2016-05-20T08:27:25.540Z,0
2016-05-20T08:27:35.527Z,0
2016-05-20T08:27:45.387Z,0
2016-05-20T08:27:55.387Z,0
2016-05-20T08:28:05.543Z,0
2016-05-20T08:28:15.387Z,0
2016-05-20T08:28:25.527Z,0
2016-05-20T08:28:35.545Z,0
2016-05-20T08:28:45.529Z,0
2016-05-20T08:28:55.389Z,0
2016-05-20T08:29:05.373Z,0
2016-05-20T08:29:15.373Z,0
2016-05-20T08:29:25.545Z,0
2016-05-20T08:29:35.532Z,0
2016-05-20T08:29:45.376Z,0
2016-05-20T08:29:55.579Z,0
2016-05-20T08:30:05.532Z,0
2016-05-20T08:30:15.376Z,0
2016-05-20T08:30:31.032Z,0
2016-05-20T08:30:53.692Z,0
2016-05-20T08:31:03.535Z,0
2016-05-20T08:31:13.692Z,0
2016-05-20T08:31:23.707Z,0
2016-05-20T08:31:33.535Z,0
2016-05-20T08:31:43.694Z,0
2016-05-20T08:31:53.694Z,0
2016-05-20T08:32:18.100Z,0
2016-05-20T08:32:28.100Z,0
2016-05-20T08:32:38.135Z,0
2016-05-20T08:32:47.838Z,0
2016-05-20T08:32:57.932Z,0
2016-05-20T08:33:07.932Z,0
2016-05-20T08:33:17.932Z,0
2016-05-20T08:33:28.120Z,0
2016-05-20T08:33:38.106Z,0
2016-05-20T08:33:47.934Z,0
2016-05-20T08:33:57.965Z,0
2016-05-20T08:34:08.090Z,0
2016-05-20T08:34:19.340Z,0
2016-05-20T08:34:29.668Z,0
2016-05-20T08:34:37.828Z,0
2016-05-20T08:34:50.218Z,0
2016-05-20T08:35:04.062Z,0
2016-05-20T08:35:08.937Z,0
2016-05-20T08:35:28.921Z,0
2016-05-20T08:35:33.781Z,0
2016-05-20T08:35:43.392Z,0
2016-05-20T08:35:53.392Z,0
2016-05-20T08:36:03.220Z,0
2016-05-20T08:36:13.377Z,0
2016-05-20T08:36:23.252Z,0
2016-05-20T08:36:40.567Z,0
2016-05-20T08:36:47.958Z,0
2016-05-20T08:36:57.176Z,0
2016-05-20T08:37:07.176Z,0
2016-05-20T08:37:21.317Z,0
2016-05-20T08:37:27.176Z,0
2016-05-20T08:37:37.179Z,0
2016-05-20T08:37:47.179Z,0
2016-05-20T08:37:57.179Z,0
2016-05-20T08:38:07.179Z,0
2016-05-20T08:38:17.179Z,0
2016-05-20T08:38:27.179Z,0
2016-05-20T08:38:37.181Z,0
2016-05-20T08:38:47.181Z,0
2016-05-20T08:38:57.181Z,0
2016-05-20T08:39:07.010Z,0
2016-05-20T08:39:36.903Z,0
2016-05-20T08:39:46.622Z,0
2016-05-20T08:39:56.778Z,0
2016-05-20T08:40:06.653Z,0
2016-05-20T08:40:17.638Z,0
2016-05-20T08:40:26.872Z,0
2016-05-20T08:40:36.625Z,0
2016-05-20T08:40:46.625Z,0
2016-05-20T08:40:56.781Z,0
2016-05-20T08:41:08.437Z,0
2016-05-20T08:41:16.625Z,0
2016-05-20T08:41:26.766Z,0
2016-05-20T08:41:51.659Z,0
2016-05-20T08:42:01.815Z,0
2016-05-20T08:42:12.847Z,0
2016-05-20T08:42:21.815Z,0
2016-05-20T08:42:31.800Z,0
2016-05-20T08:42:41.818Z,0
2016-05-20T08:42:51.647Z,0
2016-05-20T08:43:01.818Z,0
2016-05-20T08:43:11.803Z,0
2016-05-20T08:43:21.803Z,0
2016-05-20T08:43:31.803Z,0
2016-05-20T08:43:41.883Z,0
2016-05-20T08:43:51.805Z,0
2016-05-20T08:44:01.805Z,0
2016-05-20T08:44:11.649Z,0
2016-05-20T08:44:21.805Z,0
2016-05-20T08:44:31.820Z,0
2016-05-20T08:44:41.791Z,0
2016-05-20T08:44:51.791Z,0
2016-05-20T08:45:01.635Z,0
2016-05-20T08:45:11.791Z,0
2016-05-20T08:45:37.591Z,0
2016-05-20T08:45:47.607Z,0
2016-05-20T08:45:57.841Z,0
2016-05-20T08:46:07.435Z,0
2016-05-20T08:46:17.591Z,0
2016-05-20T08:46:27.638Z,0
2016-05-20T08:46:37.578Z,0
2016-05-20T08:46:47.953Z,0
2016-05-20T08:46:57.578Z,0
2016-05-20T08:47:07.610Z,0
2016-05-20T08:47:17.422Z,0
2016-05-20T08:47:27.578Z,0
2016-05-20T08:47:37.581Z,0
2016-05-20T08:47:47.581Z,0
2016-05-20T08:47:57.581Z,0
2016-05-20T08:48:07.425Z,0
2016-05-20T08:48:17.581Z,0
2016-05-20T08:48:27.566Z,0
2016-05-20T08:48:37.569Z,0
2016-05-20T08:48:47.413Z,0
2016-05-20T08:48:57.569Z,0
2016-05-20T08:49:07.569Z,0
2016-05-20T08:49:17.569Z,0
2016-05-20T08:49:27.584Z,0
2016-05-20T08:49:37.571Z,0
2016-05-20T08:49:47.571Z,0
2016-05-20T08:49:57.571Z,0
2016-05-20T08:50:07.571Z,0
2016-05-20T08:50:17.571Z,0
2016-05-20T08:50:27.571Z,0
2016-05-20T08:50:37.574Z,0
2016-05-20T08:50:47.558Z,0
2016-05-20T08:50:57.558Z,0
2016-05-20T08:51:07.402Z,0
2016-05-20T08:51:17.558Z,0
2016-05-20T08:51:27.558Z,0
2016-05-20T08:51:37.561Z,0
2016-05-20T08:51:47.577Z,0
2016-05-20T08:51:57.561Z,0
2016-05-20T08:52:07.561Z,0
2016-05-20T08:52:17.561Z,0
2016-05-20T08:52:27.546Z,0
2016-05-20T08:52:37.548Z,0
2016-05-20T08:52:47.548Z,0
2016-05-20T08:52:57.548Z,0
2016-05-20T08:53:07.548Z,0
2016-05-20T08:53:17.563Z,0
2016-05-20T08:53:27.548Z,0
2016-05-20T08:53:37.394Z,0
2016-05-20T08:53:47.551Z,0
2016-05-20T08:53:57.254Z,0
2016-05-20T08:54:07.551Z,0
2016-05-20T08:54:17.551Z,0
2016-05-20T08:54:27.551Z,0
2016-05-20T08:54:37.521Z,0
2016-05-20T08:54:47.381Z,0
2016-05-20T08:54:57.537Z,0
2016-05-20T08:55:07.537Z,0
2016-05-20T08:55:17.521Z,0
2016-05-20T08:55:27.803Z,0
2016-05-20T08:55:37.557Z,0
2016-05-20T08:55:47.385Z,0
2016-05-20T08:55:57.416Z,0
2016-05-20T08:56:07.541Z,0
2016-05-20T08:56:17.572Z,0
2016-05-20T08:56:27.541Z,0
2016-05-20T08:56:37.527Z,0
2016-05-20T08:56:47.527Z,0
2016-05-20T08:56:57.527Z,0
2016-05-20T08:57:07.527Z,0
2016-05-20T08:57:17.527Z,0
2016-05-20T08:57:27.527Z,0
2016-05-20T08:57:37.545Z,0
2016-05-20T08:57:47.529Z,0
2016-05-20T08:57:57.514Z,0
2016-05-20T08:58:07.529Z,0
2016-05-20T08:58:17.389Z,0
2016-05-20T08:58:27.529Z,0
2016-05-20T08:58:37.361Z,0
2016-05-20T08:58:47.830Z,0
2016-05-20T08:58:57.565Z,0
2016-05-20T08:59:07.518Z,0
2016-05-20T08:59:43.707Z,0
2016-05-20T08:59:53.676Z,0
2016-05-20T09:00:03.504Z,0
2016-05-20T09:00:13.660Z,0
2016-05-20T09:00:23.660Z,0
2016-05-20T09:00:33.660Z,0
2016-05-20T09:00:43.663Z,0
2016-05-20T09:00:53.663Z,0
2016-05-20T09:01:03.663Z,0
2016-05-20T09:01:13.491Z,0
2016-05-20T09:01:23.648Z,0
2016-05-20T09:01:33.648Z,0
2016-05-20T09:01:43.650Z,0
2016-05-20T09:01:53.650Z,0
2016-05-20T09:02:03.650Z,0
2016-05-20T09:02:13.509Z,0
2016-05-20T09:02:23.665Z,0
2016-05-20T09:02:33.650Z,0
2016-05-20T09:02:43.637Z,0
2016-05-20T09:02:53.653Z,0
2016-05-20T09:03:03.481Z,0
2016-05-20T09:03:13.496Z,0
2016-05-20T09:03:23.481Z,0
2016-05-20T09:03:33.637Z,0
2016-05-20T09:03:43.640Z,0
2016-05-20T09:03:54.874Z,0
2016-05-20T09:04:03.640Z,0
2016-05-20T09:04:13.640Z,0
2016-05-20T09:04:23.499Z,0
2016-05-20T09:04:33.749Z,0
2016-05-20T09:04:43.674Z,0
2016-05-20T09:04:53.877Z,0
2016-05-20T09:05:03.706Z,0
2016-05-20T09:05:13.643Z,0
2016-05-20T09:05:23.627Z,0
2016-05-20T09:05:33.643Z,0
2016-05-20T09:05:43.598Z,0
2016-05-20T09:05:53.629Z,0
2016-05-20T09:06:03.629Z,0
2016-05-20T09:06:13.489Z,0
2016-05-20T09:06:23.645Z,0
2016-05-20T09:06:33.504Z,0
2016-05-20T09:06:43.631Z,0
2016-05-20T09:06:53.616Z,0
2016-05-20T09:07:03.631Z,0
2016-05-20T09:07:13.631Z,0
2016-05-20T09:07:23.694Z,0
2016-05-20T09:07:33.631Z,0
2016-05-20T09:07:43.620Z,0
2016-05-20T09:07:53.620Z,0
2016-05-20T09:08:03.620Z,0
2016-05-20T09:08:14.839Z,0
2016-05-20T09:08:23.620Z,0
2016-05-20T09:08:33.651Z,0
2016-05-20T09:08:43.497Z,0
2016-05-20T09:08:53.622Z,0
2016-05-20T09:09:03.716Z,0
2016-05-20T09:09:13.606Z,0
2016-05-20T09:09:23.762Z,0
2016-05-20T09:09:33.653Z,0
2016-05-20T09:09:43.328Z,0
2016-05-20T09:09:54.047Z,0
2016-05-20T09:10:03.609Z,0
2016-05-20T09:10:13.797Z,0
2016-05-20T09:10:23.609Z,0
2016-05-20T09:10:34.125Z,0
2016-05-20T09:10:43.643Z,0
2016-05-20T09:10:53.597Z,0
2016-05-20T09:11:03.440Z,0
2016-05-20T09:11:13.597Z,0
2016-05-20T09:11:23.456Z,0
2016-05-20T09:11:33.472Z,0
2016-05-20T09:11:43.599Z,0
2016-05-20T09:11:53.599Z,0
2016-05-20T09:12:03.599Z,0
2016-05-20T09:12:13.599Z,0
2016-05-20T09:12:23.442Z,0
2016-05-20T09:12:33.599Z,0
2016-05-20T09:12:43.602Z,0
2016-05-20T09:12:53.602Z,0
2016-05-20T09:13:03.602Z,0
2016-05-20T09:13:13.602Z,0
2016-05-20T09:13:24.242Z,0
2016-05-20T09:13:33.586Z,0
2016-05-20T09:13:43.589Z,0
2016-05-20T09:13:53.433Z,0
2016-05-20T09:14:03.589Z,0
2016-05-20T09:14:13.605Z,0
2016-05-20T09:14:23.589Z,0
2016-05-20T09:14:33.589Z,0
2016-05-20T09:14:43.591Z,0
2016-05-20T09:14:53.575Z,0
2016-05-20T09:15:20.794Z,0
2016-05-20T09:15:30.778Z,0
2016-05-20T09:15:40.938Z,0
2016-05-20T09:15:50.938Z,0
2016-05-20T09:16:00.797Z,0
2016-05-20T09:16:10.938Z,0
2016-05-20T09:16:20.781Z,0
2016-05-20T09:16:30.938Z,0
2016-05-20T09:16:40.769Z,0
2016-05-20T09:16:50.769Z,0
2016-05-20T09:17:00.816Z,0
2016-05-20T09:17:10.925Z,0
2016-05-20T09:17:20.925Z,0
2016-05-20T09:17:30.956Z,0
2016-05-20T09:17:40.928Z,0
2016-05-20T09:17:50.772Z,0
2016-05-20T09:18:00.928Z,0
2016-05-20T09:18:10.772Z,0
2016-05-20T09:18:21.553Z,0
2016-05-20T09:18:30.928Z,0
2016-05-20T09:18:40.931Z,0
2016-05-20T09:18:50.775Z,0
2016-05-20T09:19:00.947Z,0
2016-05-20T09:19:10.931Z,0
2016-05-20T09:19:20.915Z,0
2016-05-20T09:19:30.915Z,0
2016-05-20T09:19:40.761Z,0
2016-05-20T09:19:50.917Z,0
2016-05-20T09:20:01.011Z,0
2016-05-20T09:20:10.917Z,0
2016-05-20T09:20:20.902Z,0
2016-05-20T09:20:30.917Z,0
2016-05-20T09:20:40.952Z,0
2016-05-20T09:20:50.905Z,0
2016-05-20T09:21:00.905Z,0
2016-05-20T09:21:10.920Z,0
2016-05-20T09:21:20.764Z,0
2016-05-20T09:21:30.764Z,0
2016-05-20T09:21:40.907Z,0
2016-05-20T09:21:50.907Z,0
2016-05-20T09:22:00.907Z,0
2016-05-20T09:22:10.907Z,0
2016-05-20T09:22:20.751Z,0
2016-05-20T09:22:30.907Z,0
2016-05-20T09:22:40.894Z,0
2016-05-20T09:22:50.894Z,0
2016-05-20T09:23:00.754Z,0
2016-05-20T09:23:13.113Z,0
2016-05-20T09:23:20.910Z,0
2016-05-20T09:23:30.910Z,0
2016-05-20T09:23:40.772Z,0
2016-05-20T09:23:52.085Z,0
2016-05-20T09:24:00.897Z,0
2016-05-20T09:24:10.897Z,0
2016-05-20T09:24:20.913Z,0
2016-05-20T09:24:30.897Z,0
2016-05-20T09:24:41.165Z,0
2016-05-20T09:24:50.759Z,0
2016-05-20T09:25:00.743Z,0
2016-05-20T09:25:10.899Z,0
2016-05-20T09:25:21.024Z,0
2016-05-20T09:25:31.055Z,0
2016-05-20T09:25:40.746Z,0
2016-05-20T09:25:50.887Z,0
2016-05-20T09:26:00.887Z,0
2016-05-20T09:26:10.887Z,0
2016-05-20T09:26:20.730Z,0
2016-05-20T09:26:30.730Z,0
2016-05-20T09:26:40.873Z,0
2016-05-20T09:26:50.732Z,0
2016-05-20T09:27:00.935Z,0
2016-05-20T09:27:10.904Z,0
2016-05-20T09:27:20.889Z,0
2016-05-20T09:27:30.717Z,0
2016-05-20T09:27:40.877Z,0
2016-05-20T09:27:50.877Z,0
2016-05-20T09:28:00.877Z,0
2016-05-20T09:28:10.721Z,0
2016-05-20T09:28:20.721Z,0
2016-05-20T09:28:30.877Z,0
2016-05-20T09:28:40.723Z,0
2016-05-20T09:28:50.879Z,0
2016-05-20T09:29:27.082Z,0
2016-05-20T09:29:37.038Z,0
2016-05-20T09:29:47.069Z,0
2016-05-20T09:29:57.023Z,0
2016-05-20T09:30:06.882Z,0
2016-05-20T09:30:17.054Z,0
2016-05-20T09:30:27.038Z,0
2016-05-20T09:30:36.869Z,0
2016-05-20T09:30:46.885Z,0
2016-05-20T09:30:57.026Z,0
2016-05-20T09:31:07.057Z,0
2016-05-20T09:31:17.057Z,0
2016-05-20T09:31:26.713Z,0
2016-05-20T09:31:37.028Z,0
2016-05-20T09:31:47.028Z,0
2016-05-20T09:31:57.340Z,0
2016-05-20T09:32:07.028Z,0
2016-05-20T09:32:17.028Z,0
2016-05-20T09:32:26.871Z,0
2016-05-20T09:32:36.859Z,0
2016-05-20T09:32:47.015Z,0
2016-05-20T09:32:56.859Z,0
2016-05-20T09:33:07.015Z,0
2016-05-20T09:33:16.874Z,0
2016-05-20T09:33:26.937Z,0
2016-05-20T09:33:36.705Z,0
2016-05-20T09:33:46.862Z,0
2016-05-20T09:33:56.721Z,0
2016-05-20T09:34:09.846Z,0
2016-05-20T09:34:16.846Z,0
2016-05-20T09:34:27.018Z,0
2016-05-20T09:34:36.864Z,0
2016-05-20T09:34:46.864Z,0
2016-05-20T09:34:57.020Z,0
2016-05-20T09:35:07.254Z,0
2016-05-20T09:35:17.051Z,0
2016-05-20T09:35:26.864Z,0
2016-05-20T09:35:36.851Z,0
2016-05-20T09:35:47.085Z,0
2016-05-20T09:35:57.023Z,0
2016-05-20T09:36:07.007Z,0
2016-05-20T09:36:16.867Z,0
2016-05-20T09:36:26.851Z,0
2016-05-20T09:36:36.837Z,0
2016-05-20T09:36:47.009Z,0
2016-05-20T09:36:57.009Z,0
2016-05-20T09:37:06.837Z,0
2016-05-20T09:37:16.837Z,0
2016-05-20T09:37:26.994Z,0
2016-05-20T09:37:37.012Z,0
2016-05-20T09:37:46.856Z,0
2016-05-20T09:37:57.044Z,0
2016-05-20T09:38:07.044Z,0
2016-05-20T09:38:16.997Z,0
2016-05-20T09:38:27.044Z,0
2016-05-20T09:38:36.859Z,0
2016-05-20T09:38:47.000Z,0
2016-05-20T09:38:56.828Z,0
2016-05-20T09:39:06.875Z,0
2016-05-20T09:39:16.984Z,0
2016-05-20T09:39:26.828Z,0
2016-05-20T09:39:37.017Z,0
2016-05-20T09:39:46.986Z,0
2016-05-20T09:39:56.861Z,0
2016-05-20T09:40:07.939Z,0
2016-05-20T09:40:17.033Z,0
2016-05-20T09:40:27.361Z,0
2016-05-20T09:40:37.630Z,0
2016-05-20T09:40:46.817Z,0
2016-05-20T09:40:56.817Z,0
2016-05-20T09:41:07.552Z,0
2016-05-20T09:41:16.661Z,0
2016-05-20T09:41:26.833Z,0
2016-05-20T09:41:36.976Z,0
2016-05-20T09:41:46.820Z,0
2016-05-20T09:41:56.820Z,0
2016-05-20T09:42:06.976Z,0
2016-05-20T09:42:16.961Z,0
2016-05-20T09:42:26.976Z,0
2016-05-20T09:42:36.979Z,0
2016-05-20T09:42:46.979Z,0
2016-05-20T09:42:56.964Z,0
2016-05-20T09:43:06.964Z,0
2016-05-20T09:43:16.854Z,0
2016-05-20T09:43:26.979Z,0
2016-05-20T09:43:39.623Z,0
2016-05-20T09:43:46.811Z,0
2016-05-20T09:43:56.967Z,0
2016-05-20T09:44:06.967Z,0
2016-05-20T09:44:19.092Z,0
2016-05-20T09:44:26.811Z,0
2016-05-20T09:44:36.953Z,0
2016-05-20T09:44:46.953Z,0
2016-05-20T09:44:56.953Z,0
2016-05-20T09:45:06.953Z,0
2016-05-20T09:45:16.984Z,0
2016-05-20T09:45:26.953Z,0
2016-05-20T09:45:36.956Z,0
2016-05-20T09:45:46.800Z,0
2016-05-20T09:45:56.956Z,0
2016-05-20T09:46:06.644Z,0
2016-05-20T09:46:16.956Z,0
2016-05-20T09:46:26.956Z,0
2016-05-20T09:46:36.943Z,0
2016-05-20T09:46:46.958Z,0
2016-05-20T09:46:56.786Z,0
2016-05-20T09:47:06.943Z,0
2016-05-20T09:47:16.943Z,0
2016-05-20T09:47:26.943Z,0
2016-05-20T09:47:36.946Z,0
2016-05-20T09:47:46.946Z,0
2016-05-20T09:47:56.946Z,0
2016-05-20T09:48:06.946Z,0
2016-05-20T09:48:16.946Z,0
2016-05-20T09:48:26.946Z,0
2016-05-20T09:48:39.261Z,0
2016-05-20T09:48:46.933Z,0
2016-05-20T09:48:56.933Z,0
2016-05-20T09:49:06.949Z,0
2016-05-20T09:49:19.074Z,0
2016-05-20T09:49:26.933Z,0
2016-05-20T09:49:36.777Z,0
2016-05-20T09:49:46.936Z,0
2016-05-20T09:49:56.952Z,0
2016-05-20T09:50:06.780Z,0
2016-05-20T09:50:16.936Z,0
2016-05-20T09:50:26.936Z,0
2016-05-20T09:50:36.938Z,0
2016-05-20T09:50:46.938Z,0
2016-05-20T09:50:56.922Z,0
2016-05-20T09:51:06.766Z,0
2016-05-20T09:51:19.282Z,0
2016-05-20T09:51:26.938Z,0
2016-05-20T09:51:36.925Z,0
2016-05-20T09:51:46.816Z,0
2016-05-20T09:51:56.925Z,0
2016-05-20T09:52:06.925Z,0
2016-05-20T09:52:16.925Z,0
2016-05-20T09:52:26.816Z,0
2016-05-20T09:52:36.910Z,0
2016-05-20T09:52:46.913Z,0
2016-05-20T09:52:56.928Z,0
2016-05-20T09:53:06.913Z,0
2016-05-20T09:53:16.756Z,0
2016-05-20T09:53:26.756Z,0
2016-05-20T09:53:36.913Z,0
2016-05-20T09:53:46.915Z,0
2016-05-20T10:46:25.478Z,0
2016-05-20T10:46:35.259Z,0
2016-05-20T10:46:45.120Z,0
2016-05-20T10:46:55.355Z,0
2016-05-20T10:47:05.417Z,0
2016-05-20T10:47:15.433Z,0
2016-05-20T10:47:25.417Z,0
2016-05-20T10:47:35.276Z,0
2016-05-20T10:47:45.264Z,0
2016-05-20T10:47:55.264Z,0
2016-05-20T10:48:05.389Z,0
2016-05-20T10:48:15.404Z,0
2016-05-20T10:48:26.076Z,0
2016-05-20T10:48:35.389Z,0
2016-05-20T10:48:58.001Z,0
2016-05-20T10:49:07.986Z,0
2016-05-20T10:49:17.986Z,0
2016-05-20T10:49:27.986Z,0
2016-05-20T10:53:04.714Z,1
2016-05-20T10:53:14.824Z,1
2016-05-20T10:53:26.933Z,2
2016-05-20T10:53:34.730Z,1
2016-05-20T10:53:46.952Z,1
2016-05-20T10:53:54.764Z,1
2016-05-20T10:54:04.702Z,1
2016-05-20T10:54:14.686Z,1
2016-05-20T10:54:24.686Z,1
2016-05-20T10:54:34.717Z,1
2016-05-20T10:54:44.688Z,1
2016-05-20T10:54:55.047Z,1
2016-05-20T10:55:04.704Z,1
2016-05-20T10:55:14.688Z,1
2016-05-20T10:55:24.688Z,1
2016-05-20T10:55:35.485Z,1
2016-05-20T10:55:44.738Z,1
2016-05-20T10:55:54.675Z,1
2016-05-20T10:56:04.691Z,1
2016-05-20T10:56:14.519Z,1
2016-05-20T10:56:24.675Z,0
2016-05-20T10:56:34.675Z,1
2016-05-20T10:56:44.522Z,21
2016-05-20T10:56:54.663Z,54
2016-05-20T10:57:04.663Z,70
2016-05-20T10:57:14.663Z,69
2016-05-20T10:57:36.663Z,68
2016-05-20T10:57:46.666Z,73
2016-05-20T10:57:56.510Z,66
2016-05-20T10:58:06.666Z,84
2016-05-20T10:58:16.666Z,82
2016-05-20T10:58:26.666Z,80
2016-05-20T10:58:36.650Z,80
2016-05-20T10:58:46.653Z,77
2016-05-20T10:58:56.653Z,76
2016-05-20T10:59:06.497Z,40
2016-05-20T10:59:16.763Z,67
2016-05-20T10:59:26.653Z,67
2016-05-20T10:59:36.653Z,62
2016-05-20T10:59:46.639Z,63
2016-05-20T10:59:56.639Z,66
2016-05-20T11:00:06.639Z,70
2016-05-20T11:00:16.654Z,71
2016-05-20T11:00:26.639Z,72
2016-05-20T11:00:36.639Z,74
2016-05-20T11:00:46.642Z,76
2016-05-20T11:00:56.642Z,75
2016-05-20T11:01:06.642Z,77
2016-05-20T11:01:16.642Z,77
2016-05-20T11:01:26.485Z,77
2016-05-20T11:01:36.642Z,75
2016-05-20T11:01:46.629Z,74
2016-05-20T11:01:56.629Z,73
2016-05-20T11:02:06.473Z,73
2016-05-20T11:02:16.645Z,70
2016-05-20T11:02:26.754Z,68
2016-05-20T11:02:36.645Z,65
2016-05-20T11:02:46.616Z,64
2016-05-20T11:02:56.569Z,66
2016-05-20T11:03:06.366Z,65
2016-05-20T11:03:16.616Z,64
2016-05-20T11:03:26.601Z,63
2016-05-20T11:03:36.663Z,63
2016-05-20T11:03:46.604Z,62
2016-05-20T11:03:56.619Z,56
2016-05-20T11:04:06.635Z,62
2016-05-20T11:04:24.979Z,61
2016-05-20T11:04:30.088Z,60
2016-05-20T11:04:58.965Z,59
2016-05-20T11:05:05.684Z,54
2016-05-20T11:05:14.606Z,54
2016-05-20T11:05:24.278Z,52
2016-05-20T11:05:34.949Z,51
2016-05-20T11:05:44.906Z,49
2016-05-20T11:05:54.093Z,48
2016-05-20T11:06:04.031Z,48
2016-05-20T11:06:14.531Z,45
2016-05-20T11:06:24.062Z,44
2016-05-20T11:06:33.718Z,43
2016-05-20T11:06:44.034Z,42
2016-05-20T11:06:54.034Z,42
2016-05-20T11:07:04.034Z,42
2016-05-20T11:07:14.049Z,42
2016-05-20T11:07:24.018Z,42
2016-05-20T11:07:34.018Z,41
2016-05-20T11:07:44.020Z,41
2016-05-20T11:07:54.036Z,42
2016-05-20T11:08:03.848Z,43
2016-05-20T11:08:14.004Z,44
2016-05-20T11:08:24.020Z,45
2016-05-20T11:08:34.020Z,47
2016-05-20T11:08:45.507Z,48
2016-05-20T11:08:54.007Z,48
2016-05-20T11:09:03.867Z,49
2016-05-20T11:09:13.867Z,51
2016-05-20T11:09:24.023Z,52
2016-05-20T11:09:34.007Z,53
2016-05-20T11:09:44.026Z,53
2016-05-20T11:09:54.026Z,54
2016-05-20T11:10:05.885Z,54
2016-05-20T11:10:13.760Z,54
2016-05-20T11:10:23.854Z,53
2016-05-20T11:10:33.885Z,52
2016-05-20T11:10:43.888Z,51
2016-05-20T11:10:54.013Z,50
2016-05-20T11:11:04.107Z,49
2016-05-20T11:11:14.138Z,47
2016-05-20T11:11:23.857Z,47
2016-05-20T11:11:34.029Z,47
2016-05-20T11:11:43.907Z,47
2016-05-20T11:11:54.001Z,47
2016-05-20T11:12:03.969Z,47
2016-05-20T11:12:13.844Z,47
2016-05-20T11:12:23.844Z,47
2016-05-20T11:12:33.985Z,48
2016-05-20T11:12:44.003Z,48